createdAt,value
2023-04-13T00:04:18.866Z,6.78
2023-04-13T00:09:18.684Z,6.97
2023-04-13T00:14:15.198Z,8.85
2023-04-13T00:19:12.850Z,7.63
2023-04-13T00:24:09.370Z,7.32
2023-04-13T00:29:06.413Z,7.22
2023-04-13T00:34:02.865Z,7.25
2023-04-13T00:38:59.369Z,8.98
2023-04-13T00:43:55.991Z,10.90
2023-04-13T00:48:52.894Z,12.25
2023-04-13T00:53:49.634Z,13.30
2023-04-13T00:58:46.256Z,11.40
2023-04-13T01:03:42.760Z,8.63
2023-04-13T01:08:46.970Z,9.85
2023-04-13T01:13:47.729Z,11.43
2023-04-13T01:18:45.683Z,8.48
2023-04-13T01:24:01.752Z,9.82
2023-04-13T01:28:59.081Z,11.00
2023-04-13T01:33:56.436Z,8.75
2023-04-13T01:38:53.081Z,12.40
2023-04-13T01:43:49.611Z,8.75
2023-04-13T01:48:49.337Z,7.65
2023-04-13T01:54:07.805Z,9.75
2023-04-13T01:59:05.052Z,10.75
2023-04-13T02:04:02.881Z,10.40
2023-04-13T02:08:59.842Z,13.32
2023-04-13T02:13:58.024Z,10.90
2023-04-13T02:18:54.891Z,11.32
2023-04-13T02:23:52.495Z,9.10
2023-04-13T02:28:49.947Z,11.02
2023-04-13T02:33:46.520Z,14.07
2023-04-13T02:38:43.302Z,13.57
2023-04-13T02:43:39.749Z,14.88
2023-04-13T02:48:36.534Z,9.70
2023-04-13T02:53:36.385Z,12.32
2023-04-13T02:58:32.823Z,12.43
2023-04-13T03:03:31.941Z,10.43
2023-04-13T03:08:28.758Z,13.15
2023-04-13T03:13:25.498Z,13.02
2023-04-13T03:18:22.151Z,10.73
2023-04-13T03:23:19.340Z,9.85
2023-04-13T03:28:15.878Z,13.45
2023-04-13T03:33:12.338Z,10.00
2023-04-13T03:38:10.271Z,10.60
2023-04-13T03:43:07.015Z,13.52
2023-04-13T03:48:05.847Z,10.85
2023-04-13T03:53:02.551Z,15.15
2023-04-13T03:57:59.053Z,15.80
2023-04-13T04:02:55.718Z,12.10
2023-04-13T04:07:52.282Z,14.45
2023-04-13T04:12:48.771Z,13.05
2023-04-13T04:17:45.414Z,13.93
2023-04-13T04:22:44.662Z,16.45
2023-04-13T04:27:50.006Z,18.13
2023-04-13T04:32:54.759Z,12.93
2023-04-13T04:37:53.154Z,12.75
2023-04-13T04:42:50.748Z,12.40
2023-04-13T04:48:15.361Z,14.05
2023-04-13T13:30:17.321Z,3.85
2023-04-13T15:24:14.350Z,2.67
2023-04-13T15:29:14.228Z,4.00
2023-04-13T15:34:10.911Z,3.42
2023-04-13T15:44:05.052Z,3.87
2023-04-13T15:49:02.548Z,5.03
2023-04-13T15:54:00.942Z,2.28
2023-04-13T15:58:57.720Z,4.05
2023-04-13T16:03:59.635Z,5.70
2023-04-13T16:08:56.676Z,3.92
2023-04-13T16:13:57.390Z,5.40
2023-04-13T16:40:59.716Z,3.60
2023-04-13T16:45:58.837Z,6.85
2023-04-13T17:41:34.836Z,6.03
2023-04-13T18:37:07.870Z,4.80
2023-04-13T20:35:36.788Z,6.70
2023-04-13T20:40:36.055Z,6.80
2023-04-13T20:45:32.654Z,6.85
2023-04-13T20:50:32.043Z,6.00
2023-04-13T20:55:28.541Z,5.15
2023-04-13T21:00:27.283Z,7.10
2023-04-13T21:05:24.158Z,10.30
2023-04-13T21:15:27.337Z,9.02
2023-04-13T21:20:24.058Z,6.70
2023-04-13T21:25:22.479Z,10.20
2023-04-13T21:30:19.039Z,7.30
2023-04-13T21:35:17.362Z,7.45
2023-04-13T21:40:17.399Z,6.78
2023-04-13T21:45:13.876Z,8.63
2023-04-13T21:50:10.560Z,9.05
2023-04-13T21:55:07.253Z,8.65
2023-04-13T22:00:06.342Z,8.13
2023-04-13T22:05:03.532Z,8.20
2023-04-13T22:14:59.486Z,7.43
2023-04-13T22:19:56.206Z,9.63
2023-04-13T22:24:53.144Z,8.20
2023-04-13T22:34:50.148Z,9.50
2023-04-13T22:39:46.891Z,9.20
2023-04-13T22:44:43.340Z,7.95
2023-04-13T22:49:39.852Z,6.70
2023-04-13T22:54:36.357Z,9.30
2023-04-13T22:59:32.855Z,9.05
2023-04-13T23:04:29.775Z,8.02
2023-04-13T23:09:26.281Z,8.73
2023-04-13T23:14:24.446Z,8.55
2023-04-13T23:19:21.089Z,10.77
2023-04-13T23:24:17.568Z,10.45
2023-04-13T23:29:16.103Z,9.57
2023-04-13T23:34:13.359Z,8.50
2023-04-13T23:39:09.803Z,9.85
2023-04-13T23:44:06.300Z,9.93
2023-04-13T23:49:02.757Z,9.93
2023-04-13T23:53:59.286Z,12.05
2023-04-13T23:58:58.600Z,9.40
